Time;durP1;ratioP1;P1;durP2;ratioP2;P2;SDS_P1;SDS_P2;PMS_P1;PMS_P2;Temp;Humidity;BMP_temperature;BMP_pressure;BME280_temperature;BME280_humidity;BME280_pressure;Samples;Min_cycle;Max_cycle;Signal;HPM_P1;HPM_P2
2019/10/28 00:01:21;;;;;;;9.8;7.2;;;;;;;14.76;77.1875;940.9905;;;;
2019/10/28 00:03:52;;;;;;;10.9;7.1;;;;;;;14.77;77.17773;940.9992;;;;
2019/10/28 00:06:25;;;;;;;11.1;7.2;;;;;;;14.78;76.98438;941.0842;;;;
2019/10/28 00:08:40;;;;;;;10;7.3;;;;;;;14.77;77.08496;941.0666;;;;
2019/10/28 00:11:13;;;;;;;10.7;7.5;;;;;;;14.75;76.98047;941.0818;;;;
2019/10/28 00:13:43;;;;;;;10;7.5;;;;;;;14.77;76.82031;941.0474;;;;
2019/10/28 00:16:17;;;;;;;11.8;7.7;;;;;;;14.67;77.24219;941.0724;;;;
2019/10/28 00:18:44;;;;;;;12.9;7.5;;;;;;;14.67;77.3457;941.058;;;;
2019/10/28 00:21:15;;;;;;;12.8;8.2;;;;;;;14.6;77.54102;941.045;;;;
2019/10/28 00:23:43;;;;;;;11.7;8.3;;;;;;;14.59;77.44531;940.9528;;;;
2019/10/28 00:26:10;;;;;;;12.3;7.9;;;;;;;14.53;77.75684;940.9121;;;;
2019/10/28 00:28:31;;;;;;;10.3;7.8;;;;;;;14.49;78.15234;940.9089;;;;
2019/10/28 00:31:01;;;;;;;11.4;7.8;;;;;;;14.47;78.24219;940.9378;;;;
2019/10/28 00:33:28;;;;;;;11.1;7.5;;;;;;;14.38;77.69629;940.9622;;;;
2019/10/28 00:35:53;;;;;;;12.7;8.2;;;;;;;14.39;77.92969;940.9581;;;;
2019/10/28 00:38:22;;;;;;;13.8;8;;;;;;;14.45;77.61719;940.9498;;;;
2019/10/28 00:40:47;;;;;;;10.8;7.7;;;;;;;14.52;77.77832;940.9473;;;;
2019/10/28 00:43:11;;;;;;;14.1;9;;;;;;;14.29;78.93555;940.9494;;;;
2019/10/28 00:45:37;;;;;;;12.6;8.4;;;;;;;14.1;79.90332;940.986;;;;
2019/10/28 00:48:06;;;;;;;11.9;8.7;;;;;;;14.06;80.36621;941.0044;;;;
2019/10/28 00:50:31;;;;;;;14.2;8.8;;;;;;;13.97;80.50098;940.956;;;;
2019/10/28 00:53:02;;;;;;;12.3;8.8;;;;;;;14.03;80.78711;940.9708;;;;
2019/10/28 00:55:33;;;;;;;13.6;8.9;;;;;;;13.91;80.9248;940.9864;;;;
2019/10/28 00:57:59;;;;;;;11.4;8.6;;;;;;;13.99;80.75781;940.9584;;;;
2019/10/28 01:00:25;;;;;;;16.1;8.9;;;;;;;14.09;80.36328;940.9067;;;;
2019/10/28 01:05:36;;;;;;;11.9;8.7;;;;;;;14.36;79.7666;940.894;;;;
2019/10/28 01:08:06;;;;;;;10.9;8.3;;;;;;;14.42;78.95898;940.8783;;;;
2019/10/28 01:10:32;;;;;;;11.8;8.6;;;;;;;14.4;78.83008;940.8692;;;;
2019/10/28 01:13:02;;;;;;;12.6;8.6;;;;;;;14.43;78.84668;940.8614;;;;
2019/10/28 01:15:27;;;;;;;11.3;8.6;;;;;;;14.45;78.91895;940.9186;;;;
2019/10/28 01:17:54;;;;;;;11.4;8.3;;;;;;;14.52;78.74805;940.9113;;;;
2019/10/28 01:20:17;;;;;;;12.1;8.5;;;;;;;14.42;79.01758;940.9144;;;;
2019/10/28 01:22:46;;;;;;;12.9;9;;;;;;;14.48;79.25781;940.9081;;;;
2019/10/28 01:25:14;;;;;;;12.8;8.9;;;;;;;14.45;79.7373;940.9242;;;;
2019/10/28 01:27:41;;;;;;;13.2;9.1;;;;;;;14.46;79.4502;940.9194;;;;
2019/10/28 01:30:08;;;;;;;12.3;8.7;;;;;;;14.47;80.0166;940.9194;;;;
2019/10/28 01:32:34;;;;;;;15.9;9.5;;;;;;;14.44;79.87402;940.9258;;;;
2019/10/28 01:34:59;;;;;;;14;8.9;;;;;;;14.44;80.12695;940.8858;;;;
2019/10/28 01:37:26;;;;;;;12.7;8.8;;;;;;;14.44;81.34863;940.9122;;;;
2019/10/28 01:39:49;;;;;;;11.6;8.8;;;;;;;14.43;81.15039;940.887;;;;
2019/10/28 01:42:18;;;;;;;10.1;8.8;;;;;;;14.38;80.97949;940.9061;;;;
2019/10/28 01:44:42;;;;;;;13.9;8.4;;;;;;;14.35;81.45801;940.894;;;;
2019/10/28 01:47:13;;;;;;;12.6;9.7;;;;;;;14.42;81.27539;940.9111;;;;
2019/10/28 01:49:45;;;;;;;13.2;9.1;;;;;;;14.45;80.57813;940.8217;;;;
2019/10/28 01:52:12;;;;;;;13.5;10;;;;;;;14.5;80.18457;940.7623;;;;
2019/10/28 01:54:35;;;;;;;13.1;9.8;;;;;;;14.48;80.17969;940.7439;;;;
2019/10/28 01:57:01;;;;;;;14.3;9.6;;;;;;;14.45;80.93555;940.7576;;;;
2019/10/28 01:59:26;;;;;;;12.2;9.3;;;;;;;14.48;80.74414;940.7406;;;;
2019/10/28 02:01:54;;;;;;;13.1;9.5;;;;;;;14.48;80.8252;940.7214;;;;
2019/10/28 02:04:42;;;;;;;11.5;9.6;;;;;;;14.5;80.24121;940.7911;;;;
2019/10/28 02:08:56;;;;;;;13.8;9.4;;;;;;;14.45;80.68164;940.7856;;;;
2019/10/28 02:11:27;;;;;;;13.6;9.6;;;;;;;14.49;80.78027;940.6998;;;;
2019/10/28 02:13:54;;;;;;;14.2;9.8;;;;;;;14.54;80.96387;940.7766;;;;
2019/10/28 02:16:26;;;;;;;13.4;9.8;;;;;;;14.57;80.55176;940.7374;;;;
2019/10/28 02:18:58;;;;;;;15.6;9.5;;;;;;;14.55;80.58496;940.803;;;;
2019/10/28 02:21:18;;;;;;;14.5;10.1;;;;;;;14.54;80.89453;940.7341;;;;
2019/10/28 02:23:42;;;;;;;13.2;9.3;;;;;;;14.55;81.58887;940.7573;;;;
2019/10/28 02:26:27;;;;;;;13.2;9.6;;;;;;;14.48;82.08105;940.7671;;;;
2019/10/28 02:28:52;;;;;;;13.6;9.3;;;;;;;14.39;82.19043;940.7675;;;;
2019/10/28 02:31:24;;;;;;;12.2;9.1;;;;;;;14.33;82.73145;940.7755;;;;
2019/10/28 02:33:50;;;;;;;12.3;9.8;;;;;;;14.4;82.79102;940.7834;;;;
2019/10/28 02:36:56;;;;;;;13.4;9.8;;;;;;;14.41;82.62012;940.7586;;;;
2019/10/28 02:39:20;;;;;;;14.9;10.3;;;;;;;14.43;82.24512;940.78;;;;
2019/10/28 02:41:47;;;;;;;13.3;10.1;;;;;;;14.46;82.15625;940.7224;;;;
2019/10/28 02:44:19;;;;;;;15.1;10.1;;;;;;;14.49;82.11719;940.7078;;;;
2019/10/28 02:46:49;;;;;;;17.2;9.9;;;;;;;14.5;81.89063;940.715;;;;
2019/10/28 02:49:14;;;;;;;14.3;9.9;;;;;;;14.53;81.87207;940.7181;;;;
2019/10/28 02:51:41;;;;;;;13.4;10.1;;;;;;;14.48;81.91992;940.7206;;;;
2019/10/28 02:54:05;;;;;;;14.5;9.9;;;;;;;14.47;82.17188;940.6886;;;;
2019/10/28 02:56:36;;;;;;;12.7;9.6;;;;;;;14.46;82.19238;940.6806;;;;
2019/10/28 02:59:00;;;;;;;13;9.1;;;;;;;14.48;81.93066;940.6517;;;;
2019/10/28 03:01:28;;;;;;;13.9;8.9;;;;;;;14.5;81.62305;940.683;;;;
2019/10/28 03:03:53;;;;;;;14.9;9.2;;;;;;;14.44;81.65918;940.6766;;;;
2019/10/28 03:06:22;;;;;;;13.1;9.2;;;;;;;14.38;82.14258;940.6873;;;;
2019/10/28 03:08:48;;;;;;;12;9.4;;;;;;;14.33;82.54688;940.697;;;;
2019/10/28 03:11:14;;;;;;;11.9;9.5;;;;;;;14.32;82.70703;940.6225;;;;
2019/10/28 03:13:44;;;;;;;12.6;9.4;;;;;;;14.34;82.65234;940.6826;;;;
2019/10/28 03:16:10;;;;;;;11.9;9.3;;;;;;;14.37;82.70605;940.673;;;;
2019/10/28 03:18:40;;;;;;;10.9;9.2;;;;;;;14.39;82.73242;940.6713;;;;
2019/10/28 03:21:03;;;;;;;14.1;9.8;;;;;;;14.43;82.54492;940.6163;;;;
2019/10/28 03:23:29;;;;;;;14.2;9.6;;;;;;;14.45;82.93945;940.6429;;;;
2019/10/28 03:25:56;;;;;;;15.4;9.8;;;;;;;14.4;83.33301;940.6464;;;;
2019/10/28 03:28:24;;;;;;;13.8;10;;;;;;;14.39;83.2041;940.6064;;;;
2019/10/28 03:31:08;;;;;;;15.5;10.1;;;;;;;14.41;83.28809;940.6472;;;;
2019/10/28 03:33:39;;;;;;;12.6;9.7;;;;;;;14.33;84.02148;940.6266;;;;
2019/10/28 03:36:05;;;;;;;14.8;10.2;;;;;;;14.27;84.2627;940.6025;;;;
2019/10/28 03:38:38;;;;;;;14.9;10.1;;;;;;;14.26;84.14551;940.5778;;;;
2019/10/28 03:43:42;;;;;;;14.2;10.7;;;;;;;14.21;84.16992;940.6135;;;;
2019/10/28 03:46:05;;;;;;;15;10.5;;;;;;;14.21;84.16992;940.5687;;;;
2019/10/28 03:48:47;;;;;;;12.7;10.4;;;;;;;14.23;84.57813;940.601;;;;
2019/10/28 03:53:35;;;;;;;17.8;10.8;;;;;;;;;;;;;
2019/10/28 03:56:48;;;;;;;14.1;10.4;;;;;;;;;;;;;
2019/10/28 03:58:36;;;;;;;16.1;10.6;;;;;;;;;;;;;
2019/10/28 04:02:34;;;;;;;13.2;10.2;;;;;;;13.84;86.20703;940.6253;;;;
2019/10/28 04:05:05;;;;;;;16.1;11.1;;;;;;;13.92;86.25586;940.6494;;;;
2019/10/28 04:07:31;;;;;;;12.3;11;;;;;;;13.98;85.6123;940.6782;;;;
2019/10/28 04:10:02;;;;;;;15.1;11.6;;;;;;;13.89;85.89453;940.6981;;;;
2019/10/28 04:12:45;;;;;;;18.6;12;;;;;;;13.68;87.0498;940.6848;;;;
2019/10/28 04:15:03;;;;;;;16.9;11.8;;;;;;;13.64;87.5;940.6512;;;;
2019/10/28 04:17:31;;;;;;;14.6;12.1;;;;;;;13.65;87.69727;940.6184;;;;
2019/10/28 04:19:56;;;;;;;17.5;11.9;;;;;;;13.53;87.97266;940.6347;;;;
2019/10/28 04:22:27;;;;;;;16.3;12.1;;;;;;;13.44;88.77051;940.5954;;;;
2019/10/28 04:24:50;;;;;;;17;12.4;;;;;;;13.26;89.36621;940.6626;;;;
2019/10/28 04:27:23;;;;;;;17.1;12.3;;;;;;;13.26;89.60742;940.6242;;;;
2019/10/28 04:29:56;;;;;;;16.4;12.7;;;;;;;13.44;89.08105;940.5745;;;;
2019/10/28 04:32:26;;;;;;;16.6;11.7;;;;;;;13.59;88.19043;940.57;;;;
2019/10/28 04:35:08;;;;;;;16.4;11.8;;;;;;;13.72;87.35547;940.5961;;;;
2019/10/28 04:37:40;;;;;;;18.9;12.1;;;;;;;13.82;86.70801;940.6053;;;;
2019/10/28 04:40:08;;;;;;;14.6;11.2;;;;;;;13.88;86.22656;940.5164;;;;
2019/10/28 04:42:50;;;;;;;13.5;10.8;;;;;;;13.93;85.7998;940.5565;;;;
2019/10/28 04:45:13;;;;;;;13.4;11.1;;;;;;;13.97;85.55371;940.5292;;;;
2019/10/28 04:47:55;;;;;;;16.4;12;;;;;;;13.96;85.9873;940.5084;;;;
2019/10/28 04:50:29;;;;;;;15.3;12.1;;;;;;;13.93;86.47461;940.4933;;;;
2019/10/28 04:53:02;;;;;;;16.2;11.5;;;;;;;13.99;86.14355;940.4724;;;;
2019/10/28 04:55:43;;;;;;;17.3;11.7;;;;;;;14.02;85.90723;940.4959;;;;
2019/10/28 04:58:18;;;;;;;17.1;12;;;;;;;14.03;85.79297;940.4575;;;;
2019/10/28 05:00:41;;;;;;;15.3;10.9;;;;;;;14.07;85.36621;940.3886;;;;
2019/10/28 05:03:13;;;;;;;16.9;11.3;;;;;;;14.12;84.79883;940.4734;;;;
2019/10/28 05:05:46;;;;;;;16.5;11.1;;;;;;;14.08;84.87207;940.4567;;;;
2019/10/28 05:08:22;;;;;;;16.1;11.7;;;;;;;14.04;85.2207;940.4551;;;;
2019/10/28 05:11:13;;;;;;;15.7;11.2;;;;;;;14.03;85.64453;940.4166;;;;
2019/10/28 05:13:35;;;;;;;17.4;13.1;;;;;;;13.95;86.32129;940.5005;;;;
2019/10/28 05:16:07;;;;;;;17.1;12.5;;;;;;;14;86.20313;940.5069;;;;
2019/10/28 05:18:34;;;;;;;17.1;12.9;;;;;;;14.08;85.8623;940.4824;;;;
2019/10/28 05:21:02;;;;;;;18.5;13;;;;;;;14.1;86.08496;940.4903;;;;
2019/10/28 05:23:27;;;;;;;18.2;13.8;;;;;;;13.97;86.62402;940.5076;;;;
2019/10/28 05:25:57;;;;;;;19.5;13.1;;;;;;;13.95;86.6875;940.4772;;;;
2019/10/28 05:28:40;;;;;;;17.9;12.6;;;;;;;13.97;86.43945;940.4564;;;;
2019/10/28 05:31:13;;;;;;;18;12.5;;;;;;;13.98;86.0498;940.4221;;;;
2019/10/28 05:33:52;;;;;;;19.7;12.9;;;;;;;14.06;85.96289;940.4888;;;;
2019/10/28 05:36:15;;;;;;;19.6;13.2;;;;;;;14.04;86.13184;940.4927;;;;
2019/10/28 05:38:44;;;;;;;18.4;13.8;;;;;;;13.95;86.38867;940.4732;;;;
2019/10/28 05:41:26;;;;;;;19.6;14.2;;;;;;;13.8;86.69336;940.3936;;;;
2019/10/28 05:43:49;;;;;;;19.6;13.6;;;;;;;13.87;86.85547;940.4732;;;;
2019/10/28 05:46:21;;;;;;;20;14;;;;;;;13.94;86.71973;940.4515;;;;
2019/10/28 05:48:55;;;;;;;20.8;14.1;;;;;;;14.06;86.2959;940.5031;;;;
2019/10/28 05:51:19;;;;;;;17.4;13.2;;;;;;;14.01;86.25098;940.4628;;;;
2019/10/28 05:54:04;;;;;;;18;13.5;;;;;;;13.98;86.50879;940.4813;;;;
2019/10/28 05:56:31;;;;;;;19.9;13.5;;;;;;;13.94;86.30762;940.4387;;;;
2019/10/28 05:59:00;;;;;;;18.3;13.7;;;;;;;13.92;86.30273;940.4308;;;;
2019/10/28 06:01:31;;;;;;;18.4;13.9;;;;;;;14;86.3418;940.4732;;;;
2019/10/28 06:04:13;;;;;;;19.8;13.7;;;;;;;14.06;85.99707;940.4839;;;;
2019/10/28 06:06:46;;;;;;;18.6;13.1;;;;;;;14.07;85.76855;940.5536;;;;
2019/10/28 06:10:29;;;;;;;21.1;13.2;;;;;;;14.16;85.3125;940.5567;;;;
2019/10/28 06:12:54;;;;;;;16.6;13.4;;;;;;;14.19;85.12207;940.5511;;;;
2019/10/28 06:15:25;;;;;;;15.8;12.8;;;;;;;14.22;84.97949;940.5553;;;;
2019/10/28 06:18:07;;;;;;;18.6;13.5;;;;;;;14.2;84.95313;940.531;;;;
2019/10/28 06:20:41;;;;;;;18;13.1;;;;;;;14.14;85.23047;940.5391;;;;
2019/10/28 06:23:15;;;;;;;17.7;13.2;;;;;;;14.15;85.28906;940.4775;;;;
2019/10/28 06:25:56;;;;;;;16.5;12.4;;;;;;;14.15;85.51953;940.5728;;;;
2019/10/28 06:28:31;;;;;;;16.1;12.9;;;;;;;14.2;85.17188;940.6408;;;;
2019/10/28 06:31:13;;;;;;;18.4;13.3;;;;;;;14.23;85.02734;940.645;;;;
2019/10/28 06:33:56;;;;;;;19.3;13.2;;;;;;;14.22;84.91211;940.6867;;;;
2019/10/28 06:36:35;;;;;;;18.1;13.2;;;;;;;14.24;84.77734;940.7163;;;;
2019/10/28 06:42:01;;;;;;;16.6;13.1;;;;;;;14.28;84.63477;940.7171;;;;
2019/10/28 06:44:39;;;;;;;19.3;14;;;;;;;14.07;85.61914;940.6841;;;;
2019/10/28 06:47:30;;;;;;;17.9;14.2;;;;;;;14.1;85.41699;940.7257;;;;
2019/10/28 06:49:43;;;;;;;18.1;13.5;;;;;;;14.16;85.1875;940.7473;;;;
2019/10/28 06:52:23;;;;;;;18.6;13.9;;;;;;;14.2;85.12598;940.7385;;;;
2019/10/28 06:54:49;;;;;;;17.2;13.3;;;;;;;14.21;85.11426;940.7289;;;;
2019/10/28 06:57:10;;;;;;;17.6;14.5;;;;;;;14.21;85.23145;940.7161;;;;
2019/10/28 06:59:37;;;;;;;20.3;13.5;;;;;;;14.22;85.1543;940.7324;;;;
2019/10/28 07:02:08;;;;;;;20.1;14.5;;;;;;;14.28;84.96875;940.7595;;;;
2019/10/28 07:04:32;;;;;;;20.5;14.8;;;;;;;14.32;84.72266;940.7516;;;;
2019/10/28 07:07:00;;;;;;;19.3;14.1;;;;;;;14.22;85.15234;940.8061;;;;
2019/10/28 07:09:38;;;;;;;18.6;13.9;;;;;;;14.21;85.33301;940.7625;;;;
2019/10/28 07:11:59;;;;;;;19.3;14.6;;;;;;;14.18;85.68457;940.809;;;;
2019/10/28 07:14:29;;;;;;;18.5;13.7;;;;;;;14.19;85.69922;940.8066;;;;
2019/10/28 07:16:58;;;;;;;21.3;15.6;;;;;;;14.23;85.46484;940.8293;;;;
2019/10/28 07:20:16;;;;;;;20.9;15.9;;;;;;;14.27;85.16504;940.8405;;;;
2019/10/28 07:22:32;;;;;;;28.2;19.2;;;;;;;14.31;85.14844;940.9158;;;;
2019/10/28 07:25:15;;;;;;;23.5;16.6;;;;;;;14.33;85.18457;940.8708;;;;
2019/10/28 07:27:47;;;;;;;26.4;18;;;;;;;14.38;85.01074;940.8924;;;;
2019/10/28 07:30:12;;;;;;;23;15.7;;;;;;;14.46;84.62207;940.8906;;;;
2019/10/28 07:32:43;;;;;;;20.3;15.7;;;;;;;14.54;83.78711;940.8215;;;;
2019/10/28 07:35:10;;;;;;;20.5;14.9;;;;;;;14.59;83.72656;940.9473;;;;
2019/10/28 07:37:37;;;;;;;18.9;14.9;;;;;;;14.54;84.62598;940.9185;;;;
2019/10/28 07:40:15;;;;;;;19.2;13.9;;;;;;;14.56;84.33203;940.9713;;;;
2019/10/28 07:42:39;;;;;;;22.2;16.4;;;;;;;14.56;84.52734;940.9761;;;;
2019/10/28 07:45:08;;;;;;;20.7;14.8;;;;;;;14.61;84.66309;940.9897;;;;
2019/10/28 07:47:35;;;;;;;18.8;14.7;;;;;;;14.67;84.7002;940.9394;;;;
2019/10/28 07:50:03;;;;;;;17.9;13.1;;;;;;;14.75;84.37012;941.0867;;;;
2019/10/28 07:52:36;;;;;;;15.7;12.6;;;;;;;14.8;84.11426;941.0658;;;;
2019/10/28 07:54:58;;;;;;;15.8;12.7;;;;;;;14.85;83.96289;941.0683;;;;
2019/10/28 07:57:24;;;;;;;16.1;11.8;;;;;;;14.95;83.58789;941.125;;;;
2019/10/28 07:59:49;;;;;;;16.8;12.5;;;;;;;15.02;83.23242;941.093;;;;
2019/10/28 08:02:19;;;;;;;14.3;11.7;;;;;;;15;83.13477;941.0928;;;;
2019/10/28 08:04:49;;;;;;;14.3;12.3;;;;;;;15.04;82.74023;941.0817;;;;
2019/10/28 08:07:42;;;;;;;15.3;11.8;;;;;;;15.1;82.04688;941.0326;;;;
2019/10/28 08:10:16;;;;;;;16;11.4;;;;;;;15.15;82.25293;941.0717;;;;
2019/10/28 08:12:43;;;;;;;12.7;10.7;;;;;;;15.19;81.91504;941.0595;;;;
2019/10/28 08:15:09;;;;;;;15.5;10.7;;;;;;;15.21;81.82617;941.0048;;;;
2019/10/28 08:17:41;;;;;;;14.7;11.1;;;;;;;15.27;81.80371;941.0411;;;;
2019/10/28 08:20:11;;;;;;;15.3;10.5;;;;;;;15.34;80.78809;941.072;;;;
2019/10/28 08:22:50;;;;;;;13.4;10.3;;;;;;;15.32;81.4082;941.093;;;;
2019/10/28 08:25:11;;;;;;;11.3;8.8;;;;;;;14.86;80.92969;941.0787;;;;
2019/10/28 08:27:35;;;;;;;8.5;6.8;;;;;;;14.59;80.40918;941.118;;;;
2019/10/28 08:29:58;;;;;;;8.5;6.2;;;;;;;14.33;81.30371;941.088;;;;
2019/10/28 08:32:24;;;;;;;6;5.4;;;;;;;14.19;81.09375;941.2039;;;;
2019/10/28 08:34:55;;;;;;;5.3;4.3;;;;;;;14.02;80.79688;941.1973;;;;
2019/10/28 08:37:27;;;;;;;5;4.4;;;;;;;13.89;81.34766;941.1929;;;;
2019/10/28 08:39:59;;;;;;;4.9;4.3;;;;;;;13.7;82.02734;941.2379;;;;
2019/10/28 08:42:29;;;;;;;4.5;3.9;;;;;;;13.65;81.7998;941.2058;;;;
2019/10/28 08:45:06;;;;;;;4.9;3.6;;;;;;;13.47;82.49805;941.2578;;;;
2019/10/28 08:47:29;;;;;;;4.3;3.9;;;;;;;13.49;82.2041;941.2283;;;;
2019/10/28 08:50:02;;;;;;;3.7;3.3;;;;;;;13.22;82.85449;941.2311;;;;
2019/10/28 08:52:31;;;;;;;4;3.2;;;;;;;13.34;82.37109;941.209;;;;
2019/10/28 08:55:00;;;;;;;3.1;2.8;;;;;;;13.13;82.74707;941.2413;;;;
2019/10/28 08:57:27;;;;;;;3.4;2.8;;;;;;;13.13;83.19434;941.2428;;;;
2019/10/28 08:59:53;;;;;;;3.2;2.7;;;;;;;13.17;82.50293;941.2774;;;;
2019/10/28 09:02:23;;;;;;;7.3;3.7;;;;;;;13.18;82.89355;941.241;;;;
2019/10/28 09:04:48;;;;;;;3.2;2.9;;;;;;;13.23;81.84668;941.2039;;;;
2019/10/28 09:07:22;;;;;;;3.5;3.1;;;;;;;13.31;82.27344;941.157;;;;
2019/10/28 09:10:00;;;;;;;3.4;3.1;;;;;;;13.26;82.02441;941.1592;;;;
2019/10/28 09:12:22;;;;;;;4.4;3;;;;;;;13.35;81.35156;941.1827;;;;
2019/10/28 09:14:47;;;;;;;3.9;2.9;;;;;;;13.27;81.06055;941.1609;;;;
2019/10/28 09:17:19;;;;;;;3.4;3.1;;;;;;;13.31;80.99805;941.1514;;;;
2019/10/28 09:19:56;;;;;;;3.7;3.4;;;;;;;13.37;80.7002;941.1476;;;;
2019/10/28 09:22:36;;;;;;;3.7;3.4;;;;;;;13.36;81.05469;941.1484;;;;
2019/10/28 09:25:00;;;;;;;4;3.5;;;;;;;13.13;81.75879;941.1077;;;;
2019/10/28 09:27:28;;;;;;;4.3;3.9;;;;;;;12.93;82.05273;941.1289;;;;
2019/10/28 09:29:55;;;;;;;5;4;;;;;;;12.73;82.81836;941.1372;;;;
2019/10/28 09:32:19;;;;;;;4.4;3.9;;;;;;;12.76;83.1123;941.0862;;;;
2019/10/28 09:35:00;;;;;;;4.8;3.9;;;;;;;12.8;83.16504;941.0305;;;;
2019/10/28 09:37:29;;;;;;;4.2;3.8;;;;;;;12.9;82.98926;941.1016;;;;
2019/10/28 09:39:55;;;;;;;4.2;3.8;;;;;;;13.01;81.50586;941.0637;;;;
2019/10/28 09:42:26;;;;;;;4.3;3.9;;;;;;;12.95;81.72461;941.1122;;;;
2019/10/28 09:44:52;;;;;;;4.6;4;;;;;;;12.94;82.02051;941.0259;;;;
2019/10/28 09:47:23;;;;;;;4.2;3.8;;;;;;;13.07;81.25293;941.0444;;;;
2019/10/28 09:49:48;;;;;;;4.2;3.8;;;;;;;13.08;81.8291;941.0995;;;;
2019/10/28 09:53:09;;;;;;;4.5;3.6;;;;;;;13.02;81.93359;941.0929;;;;
2019/10/28 09:55:42;;;;;;;4;3.6;;;;;;;13.22;81.32617;941.0416;;;;
2019/10/28 09:58:04;;;;;;;3.9;3.5;;;;;;;13.35;80.39941;941.0603;;;;
2019/10/28 10:00:31;;;;;;;4.5;3.5;;;;;;;13.42;79.96094;941.0712;;;;
2019/10/28 10:03:02;;;;;;;3.9;3.6;;;;;;;13.47;79.33887;941.0282;;;;
2019/10/28 10:05:25;;;;;;;4.5;4.1;;;;;;;13.29;80.69629;941.0017;;;;
2019/10/28 10:07:51;;;;;;;5.7;3.5;;;;;;;13.26;80.9209;941.048;;;;
2019/10/28 10:10:21;;;;;;;4.2;3.8;;;;;;;13.33;79.91211;941.0419;;;;
2019/10/28 10:12:45;;;;;;;6.2;3.9;;;;;;;13.44;80.11523;940.9458;;;;
2019/10/28 10:15:10;;;;;;;4;3.6;;;;;;;13.44;80.32227;940.9609;;;;
2019/10/28 10:17:42;;;;;;;4;3.6;;;;;;;13.47;79.84277;940.9394;;;;
2019/10/28 10:20:10;;;;;;;4.8;4;;;;;;;13.4;80.07227;940.8853;;;;
2019/10/28 10:22:34;;;;;;;3.9;3.5;;;;;;;13.44;80.32227;940.9041;;;;
2019/10/28 10:24:59;;;;;;;4.1;3.7;;;;;;;13.57;79.35645;940.9028;;;;
2019/10/28 10:27:25;;;;;;;4;3.6;;;;;;;13.65;79.30273;940.9241;;;;
2019/10/28 10:29:53;;;;;;;3.8;3.5;;;;;;;13.62;79.48145;940.8969;;;;
2019/10/28 10:32:21;;;;;;;4.2;3.8;;;;;;;13.49;79.85938;940.8722;;;;
2019/10/28 10:34:48;;;;;;;4.2;3.8;;;;;;;13.63;79.5166;940.8176;;;;
2019/10/28 10:37:15;;;;;;;4.3;3.8;;;;;;;13.65;79.61328;940.8176;;;;
2019/10/28 10:39:39;;;;;;;4.2;3.8;;;;;;;13.63;79.3584;940.8264;;;;
2019/10/28 10:42:08;;;;;;;4.6;4.2;;;;;;;13.62;79.35352;940.812;;;;
2019/10/28 10:44:42;;;;;;;4;3.7;;;;;;;13.6;79.20215;940.8133;;;;
2019/10/28 10:47:15;;;;;;;4.6;4.2;;;;;;;13.41;79.59375;940.7726;;;;
2019/10/28 10:49:49;;;;;;;4.2;3.8;;;;;;;13.34;79.88867;940.7548;;;;
2019/10/28 10:52:21;;;;;;;4.2;3.8;;;;;;;13.25;80.45996;940.7449;;;;
2019/10/28 10:54:51;;;;;;;4.2;3.8;;;;;;;13.38;79.85059;940.7949;;;;
2019/10/28 10:57:25;;;;;;;4.4;4;;;;;;;13.36;79.98535;940.642;;;;
2019/10/28 10:59:55;;;;;;;4.4;4;;;;;;;13.44;79.72461;940.7106;;;;
2019/10/28 11:02:33;;;;;;;4.5;4.1;;;;;;;13.37;80.59668;940.6277;;;;
2019/10/28 11:04:59;;;;;;;4;3.7;;;;;;;13.59;79.6709;940.6492;;;;
2019/10/28 11:07:33;;;;;;;4.6;4.2;;;;;;;13.63;78.91992;940.6047;;;;
2019/10/28 11:09:59;;;;;;;9.5;5.9;;;;;;;13.59;81.52148;940.5836;;;;
2019/10/28 11:12:32;;;;;;;25;11.4;;;;;;;13.69;81.57617;940.5936;;;;
2019/10/28 11:15:01;;;;;;;8.2;5.1;;;;;;;13.76;78.61133;940.5369;;;;
2019/10/28 11:17:28;;;;;;;8.3;5.8;;;;;;;13.83;79.00391;940.5636;;;;
2019/10/28 11:21:09;;;;;;;5.8;4.9;;;;;;;13.91;77.99219;940.5653;;;;
2019/10/28 11:23:24;;;;;;;5.1;4.6;;;;;;;13.84;77.97949;940.3539;;;;
2019/10/28 11:26:03;;;;;;;6.5;4.6;;;;;;;13.79;77.66113;940.3872;;;;
2019/10/28 11:28:28;;;;;;;5.5;5;;;;;;;13.51;78.72461;940.4099;;;;
2019/10/28 11:30:59;;;;;;;5.7;5.1;;;;;;;13.37;79.80469;940.3886;;;;
2019/10/28 11:33:33;;;;;;;5.2;4.7;;;;;;;13.42;79.28418;940.3161;;;;
2019/10/28 11:36:03;;;;;;;5.2;4.7;;;;;;;13.47;78.90234;940.3106;;;;
2019/10/28 11:38:30;;;;;;;6.2;4.7;;;;;;;13.5;78.50488;940.2939;;;;
2019/10/28 11:40:57;;;;;;;5.3;4.8;;;;;;;13.48;78.68652;940.2522;;;;
2019/10/28 11:43:32;;;;;;;6.3;4.7;;;;;;;13.49;78.66406;940.2219;;;;
2019/10/28 11:46:08;;;;;;;5;4.6;;;;;;;13.44;78.58691;940.1818;;;;
2019/10/28 11:49:08;;;;;;;5.6;5.1;;;;;;;13.38;79.3584;940.2045;;;;
2019/10/28 11:51:35;;;;;;;5.5;5;;;;;;;13.36;79.3877;940.2141;;;;
2019/10/28 11:54:07;;;;;;;5.2;4.7;;;;;;;13.23;79.36523;940.2307;;;;
2019/10/28 11:56:46;;;;;;;5.8;5.2;;;;;;;13.26;78.96777;940.1859;;;;
2019/10/28 11:59:13;;;;;;;6.5;5.6;;;;;;;13.18;79.45801;940.2103;;;;
2019/10/28 12:01:58;;;;;;;6.1;5.5;;;;;;;13.12;79.70117;940.1747;;;;
2019/10/28 12:07:02;;;;;;;6.3;5.7;;;;;;;12.92;80.59277;940.1074;;;;
2019/10/28 12:09:30;;;;;;;6.6;5.9;;;;;;;12.84;80.80957;940.176;;;;
2019/10/28 12:12:06;;;;;;;6.6;6;;;;;;;12.71;81.55273;940.1575;;;;
2019/10/28 12:15:09;;;;;;;6.6;5.9;;;;;;;12.82;81.18457;940.0567;;;;
2019/10/28 12:17:40;;;;;;;7.1;6.4;;;;;;;12.58;82.6748;940.0934;;;;
2019/10/28 12:20:09;;;;;;;6.6;6;;;;;;;12.69;82.3877;940.0184;;;;
2019/10/28 12:22:35;;;;;;;7;6.3;;;;;;;12.76;81.5957;940.0266;;;;
2019/10/28 12:25:00;;;;;;;6.8;6.2;;;;;;;12.7;81.92969;939.98;;;;
2019/10/28 12:27:30;;;;;;;7.4;6.3;;;;;;;12.82;81.41406;940.02;;;;
2019/10/28 12:30:01;;;;;;;7;6.3;;;;;;;12.7;81.7002;939.9944;;;;
2019/10/28 12:32:26;;;;;;;7;6.3;;;;;;;12.74;81.87891;939.9738;;;;
2019/10/28 12:34:50;;;;;;;7.7;6.9;;;;;;;12.8;81.55859;939.9877;;;;
2019/10/28 12:37:15;;;;;;;7.3;6.6;;;;;;;12.65;81.9541;939.9288;;;;
2019/10/28 12:39:48;;;;;;;8.6;6.7;;;;;;;12.6;82.54199;939.8947;;;;
2019/10/28 12:42:14;;;;;;;7.4;6.3;;;;;;;12.66;82.16211;939.92;;;;
2019/10/28 12:44:41;;;;;;;7.1;6.4;;;;;;;12.75;81.7666;939.8908;;;;
2019/10/28 12:47:07;;;;;;;7.4;6.7;;;;;;;12.77;81.59961;939.8309;;;;
2019/10/28 12:49:35;;;;;;;7.5;6.7;;;;;;;12.67;81.83301;939.8377;;;;
2019/10/28 12:52:03;;;;;;;7.5;6.8;;;;;;;12.64;81.87402;939.8776;;;;
2019/10/28 12:54:31;;;;;;;8;7.2;;;;;;;12.67;82.02832;939.8881;;;;
2019/10/28 12:56:59;;;;;;;8.5;7.6;;;;;;;12.67;82.13184;939.9009;;;;
2019/10/28 12:59:29;;;;;;;9.4;7.9;;;;;;;12.42;83.37891;939.85;;;;
2019/10/28 13:02:00;;;;;;;9.8;7.9;;;;;;;12.5;82.9707;939.8336;;;;
2019/10/28 13:04:26;;;;;;;11.4;8;;;;;;;12.47;83.27344;939.9037;;;;
2019/10/28 13:06:54;;;;;;;9.8;8.2;;;;;;;12.46;83.06738;939.8342;;;;
2019/10/28 13:09:22;;;;;;;9;7.9;;;;;;;12.53;83.08887;939.8552;;;;
2019/10/28 13:11:45;;;;;;;9.2;8.3;;;;;;;12.61;82.68164;939.8755;;;;
2019/10/28 13:14:16;;;;;;;8.6;7.7;;;;;;;12.69;82.07715;939.829;;;;
2019/10/28 13:16:40;;;;;;;8.3;7.4;;;;;;;12.71;81.86133;939.8619;;;;
2019/10/28 13:19:09;;;;;;;8.7;7.8;;;;;;;12.64;82.35547;939.864;;;;
2019/10/28 13:21:34;;;;;;;8.1;7.3;;;;;;;12.61;82.49805;939.7877;;;;
2019/10/28 13:24:06;;;;;;;7.9;7.1;;;;;;;12.72;81.75098;939.6965;;;;
2019/10/28 13:26:32;;;;;;;8;7.2;;;;;;;12.77;81.57617;939.7509;;;;
2019/10/28 13:29:03;;;;;;;7.4;6.6;;;;;;;12.87;80.92773;939.8275;;;;
2019/10/28 13:31:28;;;;;;;7.3;6.3;;;;;;;12.86;81.20313;939.7972;;;;
2019/10/28 13:33:55;;;;;;;7.4;6.7;;;;;;;12.88;81.49316;939.8259;;;;
2019/10/28 13:36:20;;;;;;;7.4;6.7;;;;;;;12.79;81.67188;939.8358;;;;
2019/10/28 13:38:43;;;;;;;8.3;7.4;;;;;;;12.74;82.16797;939.8356;;;;
2019/10/28 13:41:09;;;;;;;7.4;6.7;;;;;;;12.79;82.15332;939.843;;;;
2019/10/28 13:43:41;;;;;;;7.8;7;;;;;;;12.68;82.44141;939.813;;;;
2019/10/28 13:46:05;;;;;;;8.1;7.3;;;;;;;12.65;82.73438;939.8074;;;;
2019/10/28 13:48:33;;;;;;;8.5;6.8;;;;;;;12.72;82.69043;939.7876;;;;
2019/10/28 13:51:03;;;;;;;7.1;6.2;;;;;;;12.78;81.89941;939.7134;;;;
2019/10/28 13:53:27;;;;;;;8;7;;;;;;;12.84;81.63574;939.8106;;;;
2019/10/28 13:55:54;;;;;;;7.7;6.7;;;;;;;12.93;81.29688;939.8613;;;;
2019/10/28 13:58:22;;;;;;;8;7.2;;;;;;;12.79;82.28027;939.8525;;;;
2019/10/28 14:00:49;;;;;;;7.8;7;;;;;;;12.86;81.82129;939.7659;;;;
2019/10/28 14:03:21;;;;;;;8.4;6.9;;;;;;;12.86;81.54688;939.7772;;;;
2019/10/28 14:05:46;;;;;;;7.5;6.7;;;;;;;12.74;81.8125;939.8452;;;;
2019/10/28 14:08:17;;;;;;;7.7;6.6;;;;;;;12.75;82.40918;939.8732;;;;
2019/10/28 14:10:46;;;;;;;7.7;6.9;;;;;;;12.76;82.30957;939.8652;;;;
2019/10/28 14:13:10;;;;;;;7.7;6.9;;;;;;;12.74;82.39551;939.7484;;;;
2019/10/28 14:15:37;;;;;;;7.6;6.7;;;;;;;12.6;82.67773;939.838;;;;
2019/10/28 14:18:07;;;;;;;7.7;6.4;;;;;;;12.43;83.17676;939.7925;;;;
2019/10/28 14:20:31;;;;;;;7.1;6.4;;;;;;;12.48;83.45996;939.7631;;;;
2019/10/28 14:23:03;;;;;;;7.1;6.4;;;;;;;12.54;83.71191;939.7162;;;;
2019/10/28 14:25:28;;;;;;;7.3;6.4;;;;;;;12.54;82.85352;939.6852;;;;
2019/10/28 14:28:08;;;;;;;8;6.5;;;;;;;12.53;83.59473;939.7155;;;;
2019/10/28 14:30:34;;;;;;;6.9;6.2;;;;;;;12.67;82.7168;939.6036;;;;
2019/10/28 14:33:01;;;;;;;6.8;6.1;;;;;;;12.77;82.28809;939.5664;;;;
2019/10/28 14:35:26;;;;;;;6.8;6.1;;;;;;;12.81;81.9043;939.5737;;;;
2019/10/28 14:37:53;;;;;;;7;6.3;;;;;;;12.77;82.02344;939.62;;;;
2019/10/28 14:40:19;;;;;;;8.1;6.4;;;;;;;12.76;82.1123;939.5927;;;;
2019/10/28 14:42:43;;;;;;;7.9;6.4;;;;;;;12.75;82.06445;939.5808;;;;
2019/10/28 14:45:08;;;;;;;8.3;7.5;;;;;;;12.6;82.71387;939.5967;;;;
2019/10/28 14:47:38;;;;;;;7.6;6.8;;;;;;;12.59;82.91699;939.5631;;;;
2019/10/28 14:50:22;;;;;;;7.6;6.8;;;;;;;12.51;83.08496;939.5405;;;;
2019/10/28 14:52:49;;;;;;;7.1;6.4;;;;;;;12.54;83.0918;939.5031;;;;